createdAt,value
2023-03-27T00:01:24.041Z,64.90
2023-03-27T00:03:53.571Z,65.00
2023-03-27T00:06:22.016Z,65.80
2023-03-27T00:08:53.396Z,64.40
2023-03-27T00:11:21.935Z,63.40
2023-03-27T00:13:51.429Z,63.40
2023-03-27T00:16:25.505Z,63.50
2023-03-27T00:18:53.051Z,63.30
2023-03-27T00:21:22.426Z,63.10
2023-03-27T00:23:50.336Z,63.20
2023-03-27T00:26:17.610Z,63.20
2023-03-27T00:28:44.630Z,63.20
2023-03-27T00:31:13.579Z,62.90
2023-03-27T00:33:41.793Z,63.10
2023-03-27T00:36:10.260Z,63.30
2023-03-27T00:38:37.322Z,63.40
2023-03-27T00:41:05.008Z,63.50
2023-03-27T00:43:34.498Z,63.50
2023-03-27T00:46:21.466Z,63.40
2023-03-27T00:48:51.525Z,63.20
2023-03-27T00:51:19.902Z,63.00
2023-03-27T00:53:48.511Z,63.30
2023-03-27T00:56:18.285Z,63.10
2023-03-27T00:58:50.246Z,63.10
2023-03-27T01:01:19.255Z,63.20
2023-03-27T01:03:49.333Z,63.20
2023-03-27T01:06:18.424Z,63.60
2023-03-27T01:08:46.924Z,63.40
2023-03-27T01:11:47.953Z,63.30
2023-03-27T01:14:23.807Z,62.80
2023-03-27T01:17:11.163Z,63.10
2023-03-27T01:19:51.976Z,63.70
2023-03-27T01:22:30.790Z,63.80
2023-03-27T01:25:13.195Z,64.20
2023-03-27T01:28:02.924Z,64.50
2023-03-27T01:30:50.167Z,64.50
2023-03-27T01:33:26.732Z,64.90
2023-03-27T01:35:57.112Z,65.10
2023-03-27T01:38:33.472Z,64.90
2023-03-27T01:41:12.231Z,64.70
2023-03-27T01:44:03.713Z,64.80
2023-03-27T01:46:42.342Z,64.70
2023-03-27T01:49:19.812Z,64.60
2023-03-27T01:51:53.718Z,64.70
2023-03-27T01:54:37.986Z,64.30
2023-03-27T01:57:16.304Z,64.30
2023-03-27T01:59:49.047Z,64.30
2023-03-27T02:02:28.196Z,64.50
2023-03-27T02:05:18.088Z,64.30
2023-03-27T02:07:51.699Z,64.30
2023-03-27T02:10:25.253Z,64.20
2023-03-27T02:13:04.776Z,64.30
2023-03-27T02:15:39.732Z,64.30
2023-03-27T02:18:12.468Z,64.10
2023-03-27T02:20:41.148Z,63.70
2023-03-27T02:23:09.224Z,63.80
2023-03-27T02:25:45.394Z,64.00
2023-03-27T02:28:38.966Z,64.00
2023-03-27T02:31:33.061Z,64.00
2023-03-27T02:34:14.308Z,64.30
2023-03-27T02:36:50.904Z,63.90
2023-03-27T02:39:39.595Z,64.10
2023-03-27T02:42:33.106Z,64.10
2023-03-27T02:45:16.554Z,64.30
2023-03-27T02:47:50.353Z,64.50
2023-03-27T02:50:22.611Z,64.80
2023-03-27T02:52:54.914Z,64.80
2023-03-27T02:55:28.100Z,64.80
2023-03-27T02:58:03.302Z,64.60
2023-03-27T03:00:40.375Z,64.60
2023-03-27T03:03:28.983Z,64.60
2023-03-27T03:06:07.537Z,64.60
2023-03-27T03:08:38.684Z,64.60
2023-03-27T03:11:11.973Z,64.80
2023-03-27T03:13:44.020Z,64.90
2023-03-27T03:16:11.412Z,64.80
2023-03-27T03:18:40.077Z,64.60
2023-03-27T03:21:07.808Z,64.20
2023-03-27T03:23:34.977Z,64.10
2023-03-27T03:26:03.167Z,64.30
2023-03-27T03:28:41.521Z,64.20
2023-03-27T03:31:43.120Z,63.70
2023-03-27T03:34:16.883Z,63.30
2023-03-27T03:36:45.092Z,63.50
2023-03-27T03:39:12.794Z,63.40
2023-03-27T03:41:41.738Z,63.10
2023-03-27T03:44:10.548Z,62.80
2023-03-27T03:46:39.201Z,63.10
2023-03-27T03:49:07.282Z,63.00
2023-03-27T03:51:35.476Z,62.60
2023-03-27T03:54:03.319Z,62.50
2023-03-27T03:56:30.987Z,62.20
2023-03-27T03:58:58.256Z,62.30
2023-03-27T04:01:26.283Z,62.50
2023-03-27T04:03:57.919Z,62.40
2023-03-27T04:06:26.671Z,62.40
2023-03-27T04:08:58.721Z,62.50
2023-03-27T04:12:04.060Z,62.60
2023-03-27T04:14:45.063Z,62.60
2023-03-27T04:17:33.559Z,62.50
2023-03-27T04:20:02.381Z,62.30
2023-03-27T04:22:29.649Z,61.50
2023-03-27T04:24:57.348Z,61.80
2023-03-27T04:27:24.454Z,61.90
2023-03-27T04:29:58.516Z,62.20
2023-03-27T04:32:43.863Z,62.30
2023-03-27T04:35:33.909Z,62.60
2023-03-27T04:38:19.619Z,62.30
2023-03-27T04:40:50.341Z,62.00
2023-03-27T04:43:18.642Z,61.80
2023-03-27T04:45:47.564Z,61.70
2023-03-27T04:48:15.725Z,61.70
2023-03-27T04:50:49.469Z,61.50
2023-03-27T04:53:30.412Z,61.20
2023-03-27T04:55:58.357Z,60.90
2023-03-27T04:58:25.937Z,61.10
2023-03-27T05:00:56.432Z,61.40
2023-03-27T05:03:24.264Z,60.90
2023-03-27T05:06:12.067Z,60.60
2023-03-27T05:08:40.722Z,60.40
2023-03-27T05:11:14.782Z,60.30
2023-03-27T05:13:44.635Z,60.70
2023-03-27T05:16:17.688Z,61.10
2023-03-27T05:18:49.495Z,61.60
2023-03-27T05:21:17.401Z,61.90
2023-03-27T05:23:44.458Z,62.00
2023-03-27T05:26:11.623Z,62.00
2023-03-27T05:28:52.594Z,61.50
2023-03-27T05:31:20.410Z,61.70
2023-03-27T05:33:54.990Z,60.90
2023-03-27T05:36:22.404Z,60.60
2023-03-27T05:38:49.486Z,59.50
2023-03-27T05:41:28.516Z,59.20
2023-03-27T05:43:55.709Z,59.60
2023-03-27T05:46:23.177Z,60.10
2023-03-27T05:49:00.489Z,60.10
2023-03-27T05:51:29.421Z,60.10
2023-03-27T05:53:56.995Z,60.10
2023-03-27T05:56:33.743Z,59.80
2023-03-27T05:59:03.707Z,60.10
2023-03-27T06:01:36.109Z,59.90
2023-03-27T06:04:04.669Z,60.00
2023-03-27T06:06:50.520Z,59.90
2023-03-27T06:09:17.557Z,60.10
2023-03-27T06:11:59.401Z,60.30
2023-03-27T06:14:26.731Z,60.50
2023-03-27T06:17:12.992Z,60.60
2023-03-27T06:19:45.097Z,60.60
2023-03-27T06:22:12.732Z,60.60
2023-03-27T06:24:40.479Z,59.90
2023-03-27T06:27:10.719Z,58.50
2023-03-27T06:29:38.885Z,57.60
2023-03-27T06:32:06.610Z,56.70
2023-03-27T06:34:39.279Z,56.20
2023-03-27T06:37:25.234Z,56.00
2023-03-27T06:39:55.026Z,55.70
2023-03-27T06:42:22.517Z,56.30
2023-03-27T06:44:59.804Z,56.10
2023-03-27T06:48:15.360Z,56.50
2023-03-27T06:50:51.039Z,56.80
2023-03-27T06:53:27.154Z,56.50
2023-03-27T06:55:57.084Z,56.70
2023-03-27T06:58:25.636Z,56.70
2023-03-27T07:00:53.279Z,56.50
2023-03-27T07:03:22.955Z,55.90
2023-03-27T07:05:53.127Z,55.30
2023-03-27T07:08:25.256Z,54.40
2023-03-27T07:11:10.917Z,53.70
2023-03-27T07:13:45.631Z,53.40
2023-03-27T07:16:21.763Z,53.70
2023-03-27T07:18:48.932Z,54.10
2023-03-27T07:21:16.489Z,53.60
2023-03-27T07:23:43.824Z,53.20
2023-03-27T07:26:13.971Z,53.00
2023-03-27T07:28:58.047Z,53.40
2023-03-27T07:31:40.216Z,53.60
2023-03-27T07:34:14.743Z,53.40
2023-03-27T07:37:17.351Z,52.70
2023-03-27T07:40:08.731Z,51.70
2023-03-27T07:42:37.029Z,51.40
2023-03-27T07:45:07.333Z,51.10
2023-03-27T07:47:34.788Z,50.90
2023-03-27T07:50:02.753Z,51.70
2023-03-27T07:52:30.188Z,51.70
2023-03-27T07:55:07.034Z,52.30
2023-03-27T07:57:57.948Z,52.40
2023-03-27T08:00:29.833Z,51.80
2023-03-27T08:03:12.188Z,51.60
2023-03-27T08:05:44.494Z,51.50
2023-03-27T08:08:14.254Z,51.20
2023-03-27T08:10:50.746Z,49.90
2023-03-27T08:13:18.499Z,49.30
2023-03-27T08:15:46.973Z,48.00
2023-03-27T08:18:25.572Z,47.30
2023-03-27T08:20:57.450Z,47.70
2023-03-27T08:23:28.871Z,48.50
2023-03-27T08:26:18.808Z,49.10
2023-03-27T08:28:58.145Z,49.20
2023-03-27T08:31:31.473Z,48.90
2023-03-27T08:34:04.035Z,48.00
2023-03-27T08:36:41.186Z,47.90
2023-03-27T08:39:08.852Z,47.10
2023-03-27T08:41:55.531Z,48.10
2023-03-27T08:44:34.491Z,48.70
2023-03-27T08:47:36.062Z,49.70
2023-03-27T08:50:25.725Z,51.40
2023-03-27T08:53:11.488Z,52.10
2023-03-27T08:55:42.473Z,52.90
2023-03-27T08:58:21.527Z,54.30
2023-03-27T09:01:03.000Z,54.30
2023-03-27T09:04:00.423Z,53.60
2023-03-27T09:06:49.417Z,49.60
2023-03-27T09:09:27.284Z,46.40
2023-03-27T09:12:18.319Z,45.20
2023-03-27T09:14:55.077Z,44.40
2023-03-27T09:17:48.560Z,44.80
2023-03-27T09:20:32.195Z,44.50
2023-03-27T09:23:25.997Z,44.60
2023-03-27T09:26:18.955Z,45.60
2023-03-27T09:29:22.235Z,46.20
2023-03-27T09:32:15.667Z,47.40
2023-03-27T09:34:43.856Z,48.80
2023-03-27T09:37:18.013Z,48.50
2023-03-27T09:39:50.593Z,49.90
2023-03-27T09:42:36.028Z,47.30
2023-03-27T09:45:08.090Z,46.40
2023-03-27T09:48:02.970Z,44.30
2023-03-27T09:50:49.446Z,42.30
2023-03-27T09:53:31.189Z,39.00
2023-03-27T09:56:20.397Z,39.20
2023-03-27T09:58:51.470Z,39.30
2023-03-27T10:01:37.468Z,38.50
2023-03-27T10:04:26.144Z,38.40
2023-03-27T10:07:01.977Z,38.40
2023-03-27T10:10:08.773Z,39.70
2023-03-27T10:12:58.359Z,40.90
2023-03-27T10:15:38.964Z,41.60
2023-03-27T10:18:28.279Z,42.80
2023-03-27T10:21:29.686Z,44.10
2023-03-27T10:24:07.027Z,44.50
2023-03-27T10:27:00.176Z,42.40
2023-03-27T10:29:34.941Z,41.40
2023-03-27T10:32:05.310Z,39.60
2023-03-27T10:34:54.475Z,39.80
2023-03-27T10:37:41.706Z,39.70
2023-03-27T10:40:38.636Z,40.60
2023-03-27T10:43:37.720Z,40.50
2023-03-27T10:46:11.746Z,41.30
2023-03-27T10:48:51.209Z,42.80
2023-03-27T10:51:48.372Z,40.30
2023-03-27T10:54:34.886Z,40.70
2023-03-27T10:57:19.812Z,39.30
2023-03-27T11:00:13.752Z,38.00
2023-03-27T11:03:00.494Z,37.80
2023-03-27T11:05:37.404Z,37.30
2023-03-27T11:08:20.606Z,35.90
2023-03-27T11:10:49.578Z,36.40
2023-03-27T11:13:47.508Z,37.50
2023-03-27T11:16:45.026Z,37.80
2023-03-27T11:19:38.098Z,38.40
2023-03-27T11:23:00.148Z,39.60
2023-03-27T11:25:47.041Z,38.30
2023-03-27T11:29:02.103Z,38.50
2023-03-27T11:31:48.321Z,38.50
2023-03-27T11:34:54.220Z,38.60
2023-03-27T11:37:59.781Z,38.50
2023-03-27T11:40:42.839Z,37.90
2023-03-27T11:43:15.678Z,37.60
2023-03-27T11:46:12.227Z,38.50
2023-03-27T11:49:00.762Z,38.70
2023-03-27T11:52:01.889Z,38.10
2023-03-27T11:54:38.195Z,38.60
2023-03-27T11:57:22.067Z,38.80
2023-03-27T12:00:19.402Z,38.30
2023-03-27T12:03:22.335Z,37.30
2023-03-27T12:06:14.753Z,38.00
2023-03-27T12:09:01.953Z,36.50
2023-03-27T12:11:42.364Z,37.40
2023-03-27T12:14:40.450Z,37.40
2023-03-27T12:17:34.670Z,34.90
2023-03-27T12:20:22.255Z,34.00
2023-03-27T12:23:13.480Z,34.40
2023-03-27T12:26:13.350Z,36.00
2023-03-27T12:29:40.559Z,37.60
2023-03-27T12:32:20.492Z,38.40
2023-03-27T12:34:55.761Z,35.90
2023-03-27T12:37:38.303Z,36.40
2023-03-27T12:40:34.384Z,35.90
2023-03-27T12:43:20.347Z,35.70
2023-03-27T12:46:10.021Z,36.60
2023-03-27T12:49:06.069Z,36.60
2023-03-27T12:51:41.360Z,35.30
2023-03-27T12:54:19.376Z,34.40
2023-03-27T12:57:15.608Z,34.60
2023-03-27T12:59:49.109Z,33.60
2023-03-27T13:02:56.648Z,33.80
2023-03-27T13:05:51.823Z,33.80
2023-03-27T13:08:54.764Z,34.70
2023-03-27T13:12:00.796Z,35.10
2023-03-27T13:15:10.011Z,35.10
2023-03-27T13:17:57.461Z,35.70
2023-03-27T13:20:52.639Z,35.10
2023-03-27T13:23:46.610Z,35.90
2023-03-27T13:26:44.085Z,37.00
2023-03-27T13:29:18.756Z,37.30
2023-03-27T13:32:04.482Z,37.30
2023-03-27T13:35:23.036Z,36.10
2023-03-27T13:37:50.483Z,35.90
2023-03-27T13:40:27.347Z,36.20
2023-03-27T13:43:21.822Z,37.00
2023-03-27T13:46:00.379Z,36.70
2023-03-27T13:49:07.060Z,36.90
2023-03-27T13:52:10.315Z,37.60
2023-03-27T13:54:55.408Z,37.50
2023-03-27T13:57:50.505Z,38.40
2023-03-27T14:00:24.319Z,41.50
2023-03-27T14:03:27.844Z,46.90
2023-03-27T14:06:20.188Z,48.90
2023-03-27T14:09:06.194Z,50.10
2023-03-27T14:12:08.384Z,51.50
2023-03-27T14:15:26.864Z,52.50
2023-03-27T14:18:25.933Z,53.10
2023-03-27T14:20:58.611Z,53.30
2023-03-27T14:23:34.983Z,53.10
2023-03-27T14:26:19.223Z,54.00
2023-03-27T14:28:49.550Z,53.80
2023-03-27T14:31:19.671Z,54.10
2023-03-27T14:34:03.856Z,53.60
2023-03-27T14:36:34.208Z,53.50
2023-03-27T14:39:26.113Z,53.30
2023-03-27T14:42:01.711Z,52.50
2023-03-27T14:44:32.583Z,51.70
2023-03-27T14:47:10.046Z,50.90
2023-03-27T14:49:41.158Z,50.20
2023-03-27T14:52:18.047Z,50.40
2023-03-27T14:55:19.737Z,50.10
2023-03-27T14:57:59.790Z,49.40
2023-03-27T15:00:33.559Z,49.40
2023-03-27T15:03:06.580Z,49.60
2023-03-27T15:05:33.928Z,49.70
2023-03-27T15:08:03.510Z,49.90
2023-03-27T15:10:52.445Z,50.10
2023-03-27T15:13:35.673Z,50.00
2023-03-27T15:16:07.002Z,48.50
2023-03-27T15:18:36.197Z,48.60
2023-03-27T15:21:10.036Z,49.10
2023-03-27T15:23:41.222Z,48.20
2023-03-27T15:26:12.183Z,48.10
2023-03-27T15:28:46.827Z,48.10
2023-03-27T15:31:14.748Z,47.80
2023-03-27T15:34:03.626Z,47.70
2023-03-27T15:36:36.263Z,47.50
2023-03-27T15:39:05.482Z,48.50
2023-03-27T15:41:32.653Z,48.70
2023-03-27T15:44:10.955Z,48.30
2023-03-27T15:46:59.002Z,49.60
2023-03-27T15:49:41.845Z,50.80
2023-03-27T15:52:28.380Z,51.50
2023-03-27T15:54:56.749Z,51.90
2023-03-27T15:57:23.914Z,52.20
2023-03-27T15:59:53.763Z,52.80
2023-03-27T16:02:23.879Z,53.10
2023-03-27T16:04:55.144Z,53.40
2023-03-27T16:07:30.315Z,53.40
2023-03-27T16:10:06.991Z,53.80
2023-03-27T16:12:48.203Z,54.40
2023-03-27T16:15:29.522Z,54.10
2023-03-27T16:17:58.916Z,54.40
2023-03-27T16:20:26.048Z,54.80
2023-03-27T16:22:53.088Z,54.70
2023-03-27T16:25:20.098Z,54.90
2023-03-27T16:27:50.487Z,53.80
2023-03-27T16:30:45.887Z,52.60
2023-03-27T16:33:18.995Z,52.30
2023-03-27T16:35:46.273Z,52.40
2023-03-27T16:38:14.140Z,52.20
2023-03-27T16:40:41.997Z,52.10
2023-03-27T16:43:09.414Z,51.60
2023-03-27T16:45:37.543Z,51.70
2023-03-27T16:48:07.980Z,51.70
2023-03-27T16:50:35.039Z,52.60
2023-03-27T16:53:02.701Z,52.10
2023-03-27T16:55:29.752Z,52.00
2023-03-27T16:57:56.940Z,51.90
2023-03-27T17:00:25.755Z,52.10
2023-03-27T17:02:52.862Z,52.00
2023-03-27T17:05:19.902Z,50.40
2023-03-27T17:07:48.326Z,49.40
2023-03-27T17:10:16.988Z,49.40
2023-03-27T17:12:44.002Z,49.60
2023-03-27T17:15:11.322Z,49.10
2023-03-27T17:17:38.407Z,49.10
2023-03-27T17:20:07.804Z,49.40
2023-03-27T17:22:35.314Z,49.80
2023-03-27T17:25:05.643Z,50.20
2023-03-27T17:27:33.499Z,50.70
2023-03-27T17:30:01.066Z,51.90
2023-03-27T17:32:28.323Z,52.40
2023-03-27T17:34:56.003Z,53.00
2023-03-27T17:37:23.641Z,53.30
2023-03-27T17:39:50.937Z,53.70
2023-03-27T17:42:18.393Z,54.00
2023-03-27T17:44:45.713Z,54.50
2023-03-27T17:47:13.790Z,54.70
2023-03-27T17:49:43.280Z,55.00
2023-03-27T17:52:12.154Z,54.90
2023-03-27T17:54:39.734Z,55.10
2023-03-27T17:57:07.200Z,55.30
2023-03-27T17:59:34.687Z,55.20
2023-03-27T18:02:02.117Z,55.10
2023-03-27T18:04:29.897Z,54.80
2023-03-27T18:06:58.038Z,54.60
2023-03-27T18:09:25.991Z,54.20
2023-03-27T18:11:53.095Z,54.30
2023-03-27T18:14:20.198Z,54.30
2023-03-27T18:16:47.253Z,54.10
2023-03-27T18:19:14.897Z,54.30
2023-03-27T18:21:42.294Z,54.20
2023-03-27T18:24:10.696Z,54.20
2023-03-27T18:26:37.764Z,54.40
2023-03-27T18:29:05.164Z,54.40
2023-03-27T18:31:32.494Z,54.70
2023-03-27T18:33:59.488Z,54.70
2023-03-27T18:36:27.346Z,54.70
2023-03-27T18:38:54.350Z,54.90
2023-03-27T18:41:21.369Z,55.20
2023-03-27T18:43:48.398Z,55.60
2023-03-27T18:46:17.302Z,55.90
2023-03-27T18:48:46.366Z,56.10
2023-03-27T18:51:13.506Z,56.30
2023-03-27T18:53:40.565Z,56.80
2023-03-27T18:56:08.285Z,56.80
2023-03-27T18:58:36.172Z,56.80
2023-03-27T19:01:09.109Z,57.10
2023-03-27T19:03:36.965Z,57.10
2023-03-27T19:06:06.825Z,57.30
2023-03-27T19:08:37.998Z,57.40
2023-03-27T19:11:06.487Z,57.50
2023-03-27T19:13:52.254Z,57.60
2023-03-27T19:16:43.758Z,57.90
2023-03-27T19:19:13.629Z,58.10
2023-03-27T19:21:54.006Z,58.50
2023-03-27T19:24:36.622Z,58.60
2023-03-27T19:27:04.185Z,58.90
2023-03-27T19:29:31.421Z,58.90
2023-03-27T19:31:58.554Z,59.10
2023-03-27T19:34:40.070Z,59.40
2023-03-27T19:37:10.086Z,59.30
2023-03-27T19:39:37.367Z,59.60
2023-03-27T19:42:04.677Z,59.60
2023-03-27T19:44:35.162Z,59.90
2023-03-27T19:47:03.767Z,59.90
2023-03-27T19:49:30.987Z,60.00
2023-03-27T19:52:20.089Z,60.50
2023-03-27T19:54:47.289Z,60.60
2023-03-27T19:57:14.793Z,60.70
2023-03-27T19:59:41.907Z,60.80
2023-03-27T20:02:11.784Z,60.60
2023-03-27T20:04:39.042Z,60.70
2023-03-27T20:07:07.598Z,60.70
2023-03-27T20:09:34.782Z,60.70
2023-03-27T20:12:02.701Z,60.60
2023-03-27T20:14:30.590Z,60.80
2023-03-27T20:16:57.843Z,60.70
2023-03-27T20:19:30.468Z,60.90
2023-03-27T20:21:59.926Z,61.00
2023-03-27T20:24:28.996Z,61.20
2023-03-27T20:26:59.455Z,61.10
2023-03-27T20:29:26.744Z,61.20
2023-03-27T20:31:53.789Z,61.30
2023-03-27T20:34:22.788Z,61.30
2023-03-27T20:36:53.262Z,61.40
2023-03-27T20:39:49.778Z,61.50
2023-03-27T20:42:23.058Z,61.60
2023-03-27T20:44:58.515Z,61.60
2023-03-27T20:47:25.778Z,61.60
2023-03-27T20:49:53.006Z,61.80
2023-03-27T20:52:22.700Z,61.70
2023-03-27T20:54:49.871Z,61.80
2023-03-27T20:57:18.481Z,61.70
2023-03-27T20:59:47.540Z,61.60
2023-03-27T21:02:19.266Z,61.80
2023-03-27T21:04:47.506Z,61.70
2023-03-27T21:07:16.011Z,61.80
2023-03-27T21:09:45.924Z,61.80
2023-03-27T21:12:13.075Z,61.80
2023-03-27T21:14:40.110Z,61.90
2023-03-27T21:17:07.187Z,62.00
2023-03-27T21:19:34.242Z,62.30
2023-03-27T21:22:01.305Z,62.30
2023-03-27T21:24:28.424Z,62.40
2023-03-27T21:26:55.825Z,62.30
2023-03-27T21:29:25.191Z,62.30
2023-03-27T21:31:52.802Z,62.10
2023-03-27T21:34:19.919Z,62.20
2023-03-27T21:36:47.010Z,62.10
2023-03-27T21:39:14.070Z,62.10
2023-03-27T21:41:41.091Z,62.00
2023-03-27T21:44:07.989Z,62.00
2023-03-27T21:46:35.110Z,62.00
2023-03-27T21:49:02.144Z,61.90
2023-03-27T21:51:29.067Z,61.70
2023-03-27T21:53:56.047Z,61.70
2023-03-27T21:56:23.049Z,61.60
2023-03-27T21:58:49.956Z,61.50
2023-03-27T22:01:16.954Z,61.50
2023-03-27T22:03:44.137Z,61.30
2023-03-27T22:06:13.427Z,61.40
2023-03-27T22:08:42.462Z,61.10
2023-03-27T22:11:11.618Z,61.10
2023-03-27T22:13:39.505Z,61.00
2023-03-27T22:16:12.724Z,60.90
2023-03-27T22:18:40.616Z,61.10
2023-03-27T22:21:23.065Z,61.10
2023-03-27T22:23:51.123Z,61.20
2023-03-27T22:26:20.050Z,61.40
2023-03-27T22:28:47.255Z,61.50
2023-03-27T22:31:14.566Z,61.60
2023-03-27T22:33:41.782Z,61.50
2023-03-27T22:36:11.837Z,61.40
2023-03-27T22:38:39.450Z,61.20
2023-03-27T22:41:08.566Z,61.20
2023-03-27T22:43:35.740Z,61.30
2023-03-27T22:46:08.107Z,61.20
2023-03-27T22:48:35.528Z,61.20
2023-03-27T22:51:03.096Z,61.20
2023-03-27T22:53:32.005Z,61.20
2023-03-27T22:56:00.166Z,61.20
2023-03-27T22:58:27.996Z,61.20
2023-03-27T23:00:56.167Z,61.20
2023-03-27T23:03:25.796Z,61.20
2023-03-27T23:05:54.582Z,61.10
2023-03-27T23:08:24.218Z,61.00
2023-03-27T23:10:59.623Z,61.10
2023-03-27T23:13:28.385Z,61.10
2023-03-27T23:15:55.941Z,61.20
2023-03-27T23:18:27.258Z,61.20
2023-03-27T23:21:00.477Z,61.20
2023-03-27T23:23:29.487Z,61.20
2023-03-27T23:25:59.989Z,61.20
2023-03-27T23:28:30.977Z,61.20
2023-03-27T23:31:18.202Z,61.20
2023-03-27T23:33:47.597Z,61.20
2023-03-27T23:36:16.240Z,61.20
2023-03-27T23:38:43.700Z,61.30
2023-03-27T23:41:12.695Z,61.10
2023-03-27T23:43:39.755Z,61.10
2023-03-27T23:46:13.611Z,61.10
2023-03-27T23:48:43.047Z,61.00
2023-03-27T23:51:11.865Z,61.10
2023-03-27T23:53:38.983Z,60.90
2023-03-27T23:56:06.380Z,60.90
2023-03-27T23:58:33.384Z,60.90
